Time;durP1;ratioP1;P1;durP2;ratioP2;P2;SDS_P1;SDS_P2;PMS_P1;PMS_P2;Temp;Humidity;BMP_temperature;BMP_pressure;BME280_temperature;BME280_humidity;BME280_pressure;Samples;Min_cycle;Max_cycle;Signal;HPM_P1;HPM_P2
2023/08/10 00:02:31;;;;;;;2.10;1.70;;;;;;;25.46;39.67;95100.88;6295763;27;110950;-73
2023/08/10 00:05:34;;;;;;;2.70;1.70;;;;;;;25.47;39.69;95097.06;6304103;27;109242;-75
2023/08/10 00:08:37;;;;;;;2.40;1.75;;;;;;;25.47;39.44;95101.66;6306251;27;109013;-63
2023/08/10 00:11:41;;;;;;;2.78;1.60;;;;;;;25.46;39.48;95103.53;6282582;27;109209;-62
2023/08/10 00:14:46;;;;;;;1.70;1.50;;;;;;;25.44;39.37;95097.72;6301569;27;109223;-62
2023/08/10 00:17:50;;;;;;;1.90;1.30;;;;;;;25.43;39.68;95104.19;6293394;27;109817;-62
2023/08/10 00:20:53;;;;;;;1.60;1.20;;;;;;;25.42;39.79;95099.16;6303715;27;110329;-62
2023/08/10 00:23:56;;;;;;;1.50;1.20;;;;;;;25.42;39.55;95093.81;6296938;27;109794;-63
2023/08/10 00:26:59;;;;;;;1.60;1.30;;;;;;;25.40;39.32;95096.81;6287936;27;109042;-62
2023/08/10 00:30:05;;;;;;;1.50;1.20;;;;;;;25.37;39.59;95094.78;6299280;27;109014;-62
2023/08/10 00:33:08;;;;;;;2.08;1.50;;;;;;;25.38;39.52;95096.38;6300400;27;110226;-62
2023/08/10 00:36:19;;;;;;;1.50;1.20;;;;;;;25.37;39.33;95087.53;6280904;27;110566;-62
2023/08/10 00:39:22;;;;;;;1.70;1.40;;;;;;;25.31;38.99;95088.00;6293704;27;109050;-62
2023/08/10 00:42:25;;;;;;;1.40;1.30;;;;;;;25.26;39.05;95085.53;6288707;27;110285;-62
2023/08/10 00:45:31;;;;;;;1.30;1.00;;;;;;;25.22;38.71;95085.41;6294495;27;108972;-63
2023/08/10 00:48:34;;;;;;;1.80;1.20;;;;;;;25.25;38.84;95092.00;6301783;27;110250;-60
2023/08/10 00:51:37;;;;;;;1.30;1.10;;;;;;;25.26;38.75;95091.66;6308915;27;109037;-62
2023/08/10 00:54:40;;;;;;;2.10;1.10;;;;;;;25.21;38.83;95078.47;6294187;27;109669;-61
2023/08/10 00:57:44;;;;;;;1.60;0.90;;;;;;;25.12;38.80;95075.06;6289579;27;109052;-62
2023/08/10 01:00:49;;;;;;;1.70;1.13;;;;;;;25.17;39.25;95060.69;6301254;27;109476;-61
2023/08/10 01:03:52;;;;;;;1.20;1.00;;;;;;;25.21;39.18;95061.63;6316546;27;110043;-62
2023/08/10 01:07:03;;;;;;;1.88;1.30;;;;;;;25.24;39.16;95060.97;6295502;27;108938;-63
2023/08/10 01:10:16;;;;;;;2.03;1.10;;;;;;;25.27;38.66;95065.66;6281155;27;109065;-62
2023/08/10 01:13:26;;;;;;;1.92;1.20;;;;;;;25.28;38.96;95059.19;6300009;27;109225;-61
2023/08/10 01:16:34;;;;;;;1.60;1.20;;;;;;;25.30;39.03;95056.97;6299210;27;109108;-61
2023/08/10 01:19:43;;;;;;;1.90;1.10;;;;;;;25.31;39.03;95058.53;6294429;27;109030;-72
2023/08/10 01:22:55;;;;;;;1.90;1.20;;;;;;;25.34;38.80;95055.22;6299364;27;110034;-74
2023/08/10 01:26:00;;;;;;;1.40;1.10;;;;;;;25.32;38.85;95055.53;6311377;27;109290;-74
2023/08/10 01:29:04;;;;;;;1.80;1.10;;;;;;;25.34;39.03;95049.84;6289969;27;109964;-74
2023/08/10 01:32:14;;;;;;;1.70;1.02;;;;;;;25.33;39.03;95042.94;6283453;27;109191;-74
2023/08/10 01:35:17;;;;;;;2.03;1.20;;;;;;;25.32;38.83;95047.50;6310868;27;108943;-74
2023/08/10 01:38:20;;;;;;;2.20;1.20;;;;;;;25.34;38.88;95044.50;6298617;27;109157;-73
2023/08/10 01:41:25;;;;;;;2.10;1.00;;;;;;;25.34;39.01;95049.84;6292754;27;109404;-74
2023/08/10 01:44:28;;;;;;;2.40;1.10;;;;;;;25.35;38.88;95056.81;6321023;27;109434;-73
2023/08/10 01:47:35;;;;;;;1.60;1.20;;;;;;;25.37;39.33;95051.91;6308621;27;110435;-74
2023/08/10 01:50:42;;;;;;;1.50;1.10;;;;;;;25.39;39.27;95052.38;6308003;27;109019;-74
2023/08/10 01:53:46;;;;;;;1.30;1.10;;;;;;;25.38;39.06;95061.53;6301295;27;109179;-74
2023/08/10 01:56:51;;;;;;;1.40;1.15;;;;;;;25.39;39.17;95073.81;6301360;27;110443;-73
2023/08/10 01:59:54;;;;;;;1.20;1.10;;;;;;;25.38;39.41;95077.63;6298531;27;110295;-73
2023/08/10 02:02:57;;;;;;;1.60;1.00;;;;;;;25.39;39.43;95076.50;6307492;27;109151;-74
2023/08/10 02:06:00;;;;;;;1.70;1.30;;;;;;;25.37;39.34;95070.66;6289685;27;108902;-75
2023/08/10 02:09:05;;;;;;;1.38;1.17;;;;;;;25.36;39.40;95066.41;6305339;27;108920;-74
2023/08/10 02:12:10;;;;;;;1.33;1.10;;;;;;;25.33;39.34;95059.00;6304525;27;109224;-74
2023/08/10 02:15:13;;;;;;;1.42;1.13;;;;;;;25.30;39.11;95065.78;6310749;27;109159;-75
2023/08/10 02:18:16;;;;;;;1.30;1.10;;;;;;;25.28;39.28;95067.25;6293444;27;109208;-75
2023/08/10 02:21:23;;;;;;;1.80;1.30;;;;;;;25.27;39.34;95055.75;6305127;27;110164;-74
2023/08/10 02:24:27;;;;;;;1.40;0.93;;;;;;;25.29;39.37;95055.41;6292427;27;109501;-73
2023/08/10 02:27:31;;;;;;;1.60;1.30;;;;;;;25.29;39.17;95058.09;6293687;27;109242;-72
2023/08/10 02:30:34;;;;;;;1.80;1.20;;;;;;;25.30;39.32;95068.47;6301485;27;108959;-74
2023/08/10 02:33:38;;;;;;;1.80;1.40;;;;;;;25.31;39.45;95082.66;6302120;27;110664;-74
2023/08/10 02:36:41;;;;;;;1.70;1.60;;;;;;;25.32;39.47;95092.25;6305729;27;109132;-72
2023/08/10 02:39:44;;;;;;;2.00;1.70;;;;;;;25.32;39.72;95105.66;6294358;27;110373;-74
2023/08/10 02:42:49;;;;;;;3.40;2.70;;;;;;;25.29;39.50;95108.97;6295935;27;109199;-74
2023/08/10 02:45:52;;;;;;;3.50;3.20;;;;;;;25.25;39.27;95116.88;6307355;27;109071;-74
2023/08/10 02:48:55;;;;;;;3.47;3.17;;;;;;;25.24;39.39;95120.69;6303105;27;109355;-75
2023/08/10 02:51:58;;;;;;;4.40;4.00;;;;;;;25.22;39.68;95127.47;6303518;27;109390;-74
2023/08/10 02:55:03;;;;;;;5.50;5.00;;;;;;;25.22;39.77;95138.19;6299404;27;110221;-74
2023/08/10 02:58:08;;;;;;;4.70;4.30;;;;;;;25.24;39.73;95147.47;6323206;27;109362;-74
2023/08/10 03:01:11;;;;;;;4.20;3.80;;;;;;;25.25;39.56;95157.06;6294590;27;109108;-74
2023/08/10 03:04:14;;;;;;;4.50;4.10;;;;;;;25.27;39.37;95162.09;6282337;27;111546;-75
2023/08/10 03:07:17;;;;;;;4.00;3.70;;;;;;;25.25;39.83;95183.84;6311364;27;109069;-74
2023/08/10 03:10:21;;;;;;;4.20;3.80;;;;;;;25.26;40.02;95192.69;6301086;27;109037;-75
2023/08/10 03:13:25;;;;;;;4.30;3.90;;;;;;;25.25;39.64;95186.53;6302428;27;109485;-63
2023/08/10 03:16:28;;;;;;;5.80;5.20;;;;;;;25.22;39.77;95179.16;6306211;27;110591;-73
2023/08/10 03:19:31;;;;;;;6.50;5.90;;;;;;;25.23;40.05;95174.56;6305581;27;108949;-74
2023/08/10 03:22:35;;;;;;;5.80;5.30;;;;;;;25.23;40.01;95178.03;6299740;27;109140;-75
2023/08/10 03:25:38;;;;;;;6.10;5.60;;;;;;;25.24;39.99;95176.16;6291397;27;110001;-75
2023/08/10 03:28:42;;;;;;;6.90;6.20;;;;;;;25.24;40.16;95184.19;6306816;27;109089;-75
2023/08/10 03:31:45;;;;;;;7.32;6.72;;;;;;;25.23;40.32;95185.28;6288850;27;109142;-75
2023/08/10 03:34:48;;;;;;;7.53;6.93;;;;;;;25.21;40.44;95179.47;6289840;27;110582;-74
2023/08/10 03:37:51;;;;;;;6.23;5.73;;;;;;;25.20;40.55;95173.31;6281986;27;109224;-73
2023/08/10 03:40:55;;;;;;;6.30;5.70;;;;;;;25.20;40.72;95167.16;6295223;27;110150;-75
2023/08/10 03:43:59;;;;;;;7.40;6.70;;;;;;;25.19;40.60;95161.03;6319260;27;109504;-75
2023/08/10 03:47:02;;;;;;;6.60;6.00;;;;;;;25.21;40.89;95148.13;6298756;27;109084;-73
2023/08/10 03:50:07;;;;;;;6.15;5.55;;;;;;;25.25;40.59;95150.94;6295369;27;109593;-74
2023/08/10 03:53:10;;;;;;;6.50;5.90;;;;;;;25.24;40.71;95152.81;6308531;27;109235;-74
2023/08/10 03:56:13;;;;;;;6.85;6.15;;;;;;;25.26;40.83;95164.00;6293962;27;109073;-75
2023/08/10 03:59:18;;;;;;;6.32;5.70;;;;;;;25.26;40.92;95160.53;6298137;27;110668;-74
2023/08/10 04:02:22;;;;;;;6.30;5.70;;;;;;;25.27;40.89;95186.22;6295814;27;110010;-74
2023/08/10 04:05:27;;;;;;;6.20;5.60;;;;;;;25.26;40.99;95192.69;6294662;27;109417;-73
2023/08/10 04:08:30;;;;;;;5.40;5.00;;;;;;;25.25;41.60;95201.81;6299046;27;109715;-64
2023/08/10 04:11:33;;;;;;;8.07;3.90;;;;;;;25.12;42.96;95216.22;6293271;27;109051;-66
2023/08/10 04:14:37;;;;;;;8.88;4.10;;;;;;;25.01;42.96;95229.16;6294455;27;109618;-67
2023/08/10 04:17:41;;;;;;;6.33;2.90;;;;;;;24.96;42.95;95224.75;6304883;27;109362;-67
2023/08/10 04:20:44;;;;;;;11.18;4.55;;;;;;;24.88;43.90;95225.56;6293054;27;109062;-68
2023/08/10 04:23:47;;;;;;;12.13;5.63;;;;;;;24.90;43.90;95223.38;6286741;27;109168;-68
2023/08/10 04:26:51;;;;;;;8.85;3.85;;;;;;;24.59;45.13;95217.41;6296873;27;108649;-66
2023/08/10 04:29:56;;;;;;;7.75;3.50;;;;;;;24.34;45.96;95209.09;6287638;27;108528;-66
2023/08/10 04:32:59;;;;;;;5.83;3.50;;;;;;;24.27;46.33;95219.47;6300488;27;109317;-67
2023/08/10 04:36:03;;;;;;;7.20;5.10;;;;;;;24.24;46.57;95225.47;6311519;27;109437;-65
2023/08/10 04:39:06;;;;;;;5.03;4.10;;;;;;;24.28;46.26;95242.44;6308071;27;109087;-67
2023/08/10 04:42:09;;;;;;;8.70;6.40;;;;;;;24.43;45.77;95251.88;6303787;27;109229;-68
2023/08/10 04:45:14;;;;;;;7.87;7.00;;;;;;;24.58;45.58;95254.09;6297449;27;111844;-67
2023/08/10 04:48:17;;;;;;;7.78;6.68;;;;;;;24.57;45.49;95263.22;6312705;27;109133;-71
2023/08/10 04:51:20;;;;;;;6.23;5.70;;;;;;;24.50;45.62;95274.38;6308823;27;109249;-72
2023/08/10 04:54:24;;;;;;;6.80;6.03;;;;;;;24.50;45.89;95270.91;6309070;27;109261;-71
2023/08/10 04:57:27;;;;;;;8.15;7.45;;;;;;;24.47;45.74;95269.66;6288636;27;109239;-74
2023/08/10 05:00:31;;;;;;;6.25;5.75;;;;;;;24.13;47.06;95269.66;6308875;27;109332;-71
2023/08/10 05:03:34;;;;;;;6.68;3.85;;;;;;;23.96;47.28;95262.34;6312593;27;109128;-72
2023/08/10 05:06:38;;;;;;;4.03;3.40;;;;;;;23.70;48.01;95262.31;6307723;27;109307;-70
2023/08/10 05:09:41;;;;;;;3.70;2.80;;;;;;;23.58;48.19;95270.91;6307262;27;109845;-70
2023/08/10 05:12:58;;;;;;;3.87;2.80;;;;;;;23.49;48.90;95266.63;6298321;27;109166;-72
2023/08/10 05:16:03;;;;;;;3.93;2.83;;;;;;;23.46;48.84;95273.38;6311007;27;109344;-71
2023/08/10 05:19:06;;;;;;;10.33;3.20;;;;;;;23.93;47.71;95267.56;6301556;27;110136;-69
2023/08/10 05:22:09;;;;;;;14.73;4.17;;;;;;;24.37;46.64;95270.00;6298577;27;108963;-69
2023/08/10 05:25:14;;;;;;;14.63;3.50;;;;;;;24.57;45.54;95262.44;6313383;27;109488;-69
2023/08/10 05:28:21;;;;;;;8.70;3.30;;;;;;;24.65;45.64;95266.97;6310661;27;109202;-70
2023/08/10 05:31:25;;;;;;;14.65;3.60;;;;;;;24.79;45.85;95262.28;6285256;27;109196;-70
2023/08/10 05:34:29;;;;;;;8.13;3.50;;;;;;;24.97;45.33;95260.34;6298771;27;109002;-70
2023/08/10 05:37:32;;;;;;;12.50;3.40;;;;;;;25.07;45.52;95255.44;6300289;27;109241;-70
2023/08/10 05:40:35;;;;;;;10.57;3.67;;;;;;;25.05;46.13;95260.34;6296416;27;109311;-70
2023/08/10 05:43:38;;;;;;;11.00;3.47;;;;;;;25.14;46.35;95259.53;6293083;27;109774;-71
2023/08/10 05:46:43;;;;;;;8.57;4.20;;;;;;;25.12;45.38;95253.69;6292461;27;109074;-69
2023/08/10 05:49:46;;;;;;;10.25;3.40;;;;;;;25.08;44.91;95248.19;6312061;27;108840;-70
2023/08/10 05:52:49;;;;;;;11.63;3.80;;;;;;;25.06;45.36;95250.41;6317439;27;110610;-71
2023/08/10 05:55:53;;;;;;;12.23;4.50;;;;;;;25.07;45.30;95260.03;6338351;27;109072;-70
2023/08/10 05:58:56;;;;;;;12.48;4.40;;;;;;;25.06;46.14;95259.22;6337630;27;109300;-63
2023/08/10 06:02:00;;;;;;;8.43;4.40;;;;;;;25.03;46.09;95251.03;6336624;27;109019;-63
2023/08/10 06:05:06;;;;;;;14.57;4.65;;;;;;;25.04;45.97;95241.91;6325124;27;109371;-62
2023/08/10 06:08:09;;;;;;;12.70;4.30;;;;;;;25.02;45.62;95234.19;6336634;27;109239;-63
2023/08/10 06:11:13;;;;;;;6.38;3.90;;;;;;;25.02;45.00;95210.06;6337175;27;109023;-64
2023/08/10 06:14:19;;;;;;;9.48;4.38;;;;;;;24.99;45.01;95205.38;6286347;27;109042;-63
2023/08/10 06:17:23;;;;;;;8.40;4.25;;;;;;;24.98;45.16;95205.69;6300810;27;110122;-62
2023/08/10 06:20:27;;;;;;;8.85;4.32;;;;;;;24.99;45.05;95208.03;6310635;27;108742;-61
2023/08/10 06:23:30;;;;;;;7.40;4.43;;;;;;;25.10;45.25;95216.53;6305290;27;109462;-62
2023/08/10 06:26:34;;;;;;;11.20;4.80;;;;;;;25.12;44.87;95222.34;6301209;27;109175;-62
2023/08/10 06:29:37;;;;;;;9.70;4.45;;;;;;;25.14;45.56;95227.38;6308233;27;108988;-61
2023/08/10 06:32:41;;;;;;;10.60;3.97;;;;;;;25.13;45.33;95239.19;6297138;27;109184;-60
2023/08/10 06:35:45;;;;;;;6.37;3.60;;;;;;;25.11;44.69;95254.81;6284658;27;108694;-62
2023/08/10 06:38:49;;;;;;;6.50;3.87;;;;;;;25.13;45.16;95258.72;6295963;27;108812;-61
2023/08/10 06:41:52;;;;;;;9.93;3.97;;;;;;;25.12;45.13;95257.16;6311727;27;109096;-61
2023/08/10 06:44:56;;;;;;;10.90;4.15;;;;;;;25.20;45.62;95260.91;6314806;27;109186;-60
2023/08/10 06:48:00;;;;;;;11.75;4.30;;;;;;;25.16;45.39;95246.59;6327698;27;109245;-63
2023/08/10 06:51:03;;;;;;;9.32;3.72;;;;;;;25.13;44.74;95233.84;6329918;27;109028;-61
2023/08/10 06:54:06;;;;;;;6.70;3.45;;;;;;;25.07;45.37;95242.06;6340635;27;109595;-63
2023/08/10 06:57:09;;;;;;;7.63;3.60;;;;;;;25.05;45.34;95249.63;6340737;27;109215;-62
2023/08/10 07:00:19;;;;;;;7.22;3.30;;;;;;;25.01;45.30;95251.34;6335765;27;109269;-62
2023/08/10 07:03:27;;;;;;;6.47;3.20;;;;;;;24.98;45.18;95254.66;6334808;27;108840;-63
2023/08/10 07:06:31;;;;;;;11.07;3.50;;;;;;;25.00;45.63;95268.53;6339845;27;109240;-61
2023/08/10 07:09:34;;;;;;;5.13;3.10;;;;;;;25.01;45.08;95272.78;6340173;27;109364;-65
2023/08/10 07:12:39;;;;;;;7.80;3.30;;;;;;;25.04;45.05;95274.84;6329692;27;109128;-63
2023/08/10 07:15:42;;;;;;;8.00;3.20;;;;;;;25.03;45.59;95269.78;6327343;27;109286;-64
2023/08/10 07:18:47;;;;;;;9.02;3.38;;;;;;;25.11;45.95;95276.22;6298939;27;108832;-63
2023/08/10 07:21:55;;;;;;;13.30;3.30;;;;;;;25.14;45.90;95271.00;6291535;27;109531;-64
2023/08/10 07:25:03;;;;;;;11.80;3.63;;;;;;;25.22;45.92;95269.44;6299804;27;108972;-63
2023/08/10 07:28:06;;;;;;;12.13;3.60;;;;;;;25.23;45.75;95269.09;6309025;27;109181;-65
2023/08/10 07:31:09;;;;;;;11.00;3.38;;;;;;;25.25;45.93;95266.09;6313647;27;109190;-64
2023/08/10 07:34:14;;;;;;;8.80;3.22;;;;;;;25.25;46.22;95268.78;6302670;27;109043;-65
2023/08/10 07:37:20;;;;;;;13.83;4.27;;;;;;;25.29;46.62;95269.72;6289921;27;109702;-65
2023/08/10 07:40:24;;;;;;;8.23;3.80;;;;;;;25.33;45.46;95278.66;6300601;27;109344;-65
2023/08/10 07:43:27;;;;;;;7.90;3.60;;;;;;;25.32;46.50;95274.41;6318008;27;109413;-65
2023/08/10 07:46:30;;;;;;;8.68;3.72;;;;;;;25.33;46.03;95276.78;6277729;27;109163;-65
2023/08/10 07:49:35;;;;;;;8.37;3.50;;;;;;;25.35;45.96;95284.53;6329301;27;109264;-65
2023/08/10 07:52:38;;;;;;;7.03;3.47;;;;;;;25.37;46.73;95282.31;6298405;27;109582;-64
2023/08/10 07:55:41;;;;;;;6.15;3.00;;;;;;;25.37;46.94;95285.81;6307926;27;110551;-64
2023/08/10 07:58:44;;;;;;;7.00;3.30;;;;;;;25.42;47.11;95292.88;6301159;27;109133;-64
2023/08/10 08:01:48;;;;;;;4.72;2.90;;;;;;;25.43;46.60;95290.97;6308471;27;108983;-63
2023/08/10 08:04:52;;;;;;;5.60;2.90;;;;;;;25.42;46.50;95287.50;6306761;27;108968;-65
2023/08/10 08:07:55;;;;;;;5.40;3.10;;;;;;;25.37;47.09;95285.81;6298659;27;109008;-64
2023/08/10 08:10:59;;;;;;;6.47;3.10;;;;;;;25.37;46.73;95283.13;6285051;27;109128;-67
2023/08/10 08:14:02;;;;;;;5.25;2.78;;;;;;;25.36;47.11;95284.19;6305259;27;109231;-64
2023/08/10 08:17:05;;;;;;;9.90;3.30;;;;;;;25.32;47.61;95285.94;6313508;27;109415;-64
2023/08/10 08:20:10;;;;;;;10.57;3.30;;;;;;;25.18;47.17;95284.53;6310735;27;110234;-63
2023/08/10 08:23:13;;;;;;;8.65;3.65;;;;;;;24.95;47.35;95289.34;6299411;27;109048;-65
2023/08/10 08:26:18;;;;;;;8.80;3.30;;;;;;;24.77;47.64;95288.56;6289687;27;109072;-62
2023/08/10 08:29:21;;;;;;;6.40;3.30;;;;;;;24.74;47.81;95290.00;6297796;27;109195;-63
2023/08/10 08:32:24;;;;;;;8.70;7.10;;;;;;;24.76;47.72;95295.81;6302816;27;109621;-63
2023/08/10 08:35:49;;;;;;;16.42;14.82;;;;;;;24.81;47.38;95294.06;6312468;27;108904;-62
2023/08/10 08:38:52;;;;;;;11.57;8.25;;;;;;;24.80;47.58;95287.94;6315457;27;109212;-63
2023/08/10 08:41:56;;;;;;;10.60;6.63;;;;;;;24.93;47.53;95292.34;6294405;27;109213;-64
2023/08/10 08:44:59;;;;;;;17.52;5.95;;;;;;;24.96;48.26;95297.03;6306227;27;109263;-62
2023/08/10 08:48:05;;;;;;;12.32;5.03;;;;;;;24.95;47.48;95290.13;6291576;27;110625;-63
2023/08/10 08:51:09;;;;;;;10.05;4.75;;;;;;;24.93;47.51;95286.97;6287195;27;109687;-63
2023/08/10 08:54:13;;;;;;;6.57;4.47;;;;;;;24.97;47.43;95287.91;6300228;27;109128;-62
2023/08/10 08:57:16;;;;;;;6.40;4.97;;;;;;;24.98;47.34;95296.72;6285531;27;108797;-63
2023/08/10 09:00:20;;;;;;;10.60;5.03;;;;;;;25.03;47.78;95285.84;6306771;27;109377;-64
2023/08/10 09:03:24;;;;;;;6.30;4.60;;;;;;;25.11;47.66;95292.28;6310890;27;109192;-63
2023/08/10 09:06:29;;;;;;;7.87;4.73;;;;;;;25.32;47.94;95298.53;6297915;27;109210;-63
2023/08/10 09:09:33;;;;;;;9.80;4.80;;;;;;;25.29;46.79;95296.50;6309742;27;109062;-62
2023/08/10 09:12:38;;;;;;;6.68;4.00;;;;;;;25.15;47.78;95291.34;6310746;27;108978;-63
2023/08/10 09:15:41;;;;;;;6.73;3.80;;;;;;;25.34;47.71;95285.59;6303023;27;110406;-63
2023/08/10 09:18:45;;;;;;;7.17;6.30;;;;;;;25.32;46.93;95295.84;6291081;27;109120;-63
2023/08/10 09:21:49;;;;;;;6.70;4.70;;;;;;;25.23;48.28;95297.78;6298302;27;108902;-62
2023/08/10 09:24:52;;;;;;;5.53;4.20;;;;;;;25.28;47.89;95297.59;6311406;27;109314;-61
2023/08/10 09:27:55;;;;;;;15.47;5.00;;;;;;;25.35;48.04;95298.72;6310104;27;109454;-60
2023/08/10 09:30:59;;;;;;;7.57;4.10;;;;;;;25.48;48.00;95294.25;6284246;27;109217;-66
2023/08/10 09:34:03;;;;;;;7.05;4.10;;;;;;;25.54;47.62;95293.00;6299429;27;109236;-62
2023/08/10 09:37:08;;;;;;;4.40;3.55;;;;;;;25.57;47.43;95288.88;6311600;27;108651;-63
2023/08/10 09:40:19;;;;;;;5.47;4.00;;;;;;;25.57;47.55;95289.66;6303099;27;108976;-64
2023/08/10 09:43:25;;;;;;;5.20;4.28;;;;;;;25.54;47.65;95290.31;6303801;27;110412;-65
2023/08/10 09:46:30;;;;;;;5.90;4.97;;;;;;;25.30;47.12;95290.81;6321382;27;109385;-64
2023/08/10 09:49:33;;;;;;;6.80;4.10;;;;;;;25.41;48.16;95287.84;6295009;27;109035;-67
2023/08/10 09:52:38;;;;;;;4.80;4.00;;;;;;;25.57;48.18;95280.84;6283995;27;111542;-64
2023/08/10 09:55:41;;;;;;;6.95;4.22;;;;;;;25.61;48.44;95287.91;6287066;27;110141;-63
2023/08/10 09:58:44;;;;;;;9.07;4.40;;;;;;;25.58;49.29;95280.50;6304342;27;108817;-63
2023/08/10 10:01:48;;;;;;;8.90;4.60;;;;;;;25.59;50.08;95278.63;6304570;27;108934;-65
2023/08/10 10:04:52;;;;;;;9.98;5.78;;;;;;;25.64;50.79;95278.44;6321182;27;110369;-63
2023/08/10 10:07:56;;;;;;;11.83;6.53;;;;;;;25.64;51.21;95273.06;6309638;27;109079;-63
2023/08/10 10:11:01;;;;;;;16.33;7.10;;;;;;;25.65;51.95;95278.09;6291018;27;109113;-63
2023/08/10 10:14:05;;;;;;;15.25;7.00;;;;;;;25.66;52.64;95265.47;6298059;27;109536;-64
2023/08/10 10:17:11;;;;;;;16.80;8.20;;;;;;;25.74;52.92;95279.97;6315634;27;109176;-64
2023/08/10 10:20:15;;;;;;;18.30;8.97;;;;;;;25.72;53.38;95284.88;6314747;27;109402;-63
2023/08/10 10:23:22;;;;;;;20.13;10.20;;;;;;;25.71;53.48;95283.28;6300876;27;109771;-62
2023/08/10 10:26:25;;;;;;;17.10;9.50;;;;;;;25.68;53.83;95285.50;6286977;27;109397;-63
2023/08/10 10:29:40;;;;;;;13.83;8.43;;;;;;;25.72;53.39;95274.16;6298832;27;109933;-63
2023/08/10 10:32:48;;;;;;;5.93;3.80;;;;;;;25.29;46.92;95272.38;6301819;27;109017;-65
2023/08/10 10:36:07;;;;;;;9.75;3.40;;;;;;;25.11;46.41;95276.22;6315272;27;109482;-65
2023/08/10 10:39:24;;;;;;;10.93;2.70;;;;;;;25.03;46.18;95278.63;6300822;27;109156;-60
2023/08/10 10:42:27;;;;;;;11.18;4.05;;;;;;;25.21;47.53;95273.22;6303165;27;109515;-64
2023/08/10 10:45:35;;;;;;;14.55;3.60;;;;;;;25.29;46.61;95272.38;6320603;27;109185;-64
2023/08/10 10:48:39;;;;;;;5.50;3.40;;;;;;;25.42;46.36;95276.78;6303772;27;109141;-64
2023/08/10 10:51:58;;;;;;;12.40;3.45;;;;;;;25.49;46.50;95270.91;6299511;27;109077;-66
2023/08/10 10:55:03;;;;;;;13.43;3.07;;;;;;;25.56;45.93;95277.38;6320967;27;109081;-64
2023/08/10 10:58:08;;;;;;;17.00;3.10;;;;;;;25.63;46.26;95272.28;6294950;27;108941;-66
2023/08/10 11:01:11;;;;;;;9.68;3.08;;;;;;;25.69;45.81;95276.34;6278092;27;109162;-67
2023/08/10 11:04:14;;;;;;;5.50;2.60;;;;;;;25.67;45.72;95265.16;6323232;27;109194;-67
2023/08/10 11:07:17;;;;;;;7.90;2.37;;;;;;;25.73;45.53;95262.31;6339401;27;109133;-67
2023/08/10 11:10:23;;;;;;;5.50;2.60;;;;;;;25.74;45.89;95266.56;6334046;27;109161;-66
2023/08/10 11:13:29;;;;;;;4.28;2.20;;;;;;;25.72;45.72;95263.44;6332174;27;109248;-67
2023/08/10 11:16:36;;;;;;;5.93;2.50;;;;;;;25.70;45.67;95263.72;6314099;27;109210;-66
2023/08/10 11:19:39;;;;;;;5.13;2.13;;;;;;;25.72;45.75;95264.22;6322634;27;109079;-64
2023/08/10 11:22:43;;;;;;;6.03;1.92;;;;;;;25.74;45.58;95262.00;6304589;27;109090;-66
2023/08/10 11:25:51;;;;;;;5.25;2.10;;;;;;;25.80;45.39;95260.69;6304876;27;109194;-66
2023/08/10 11:28:54;;;;;;;6.50;2.10;;;;;;;25.85;45.31;95257.03;6310251;27;109020;-67
2023/08/10 11:31:57;;;;;;;5.60;2.38;;;;;;;25.89;44.94;95264.13;6295073;27;109940;-64
2023/08/10 11:35:03;;;;;;;4.53;2.30;;;;;;;25.88;45.60;95256.41;6300089;27;113489;-66
2023/08/10 11:38:06;;;;;;;3.40;2.00;;;;;;;25.82;45.08;95255.00;6303935;27;108982;-65
2023/08/10 11:41:11;;;;;;;3.42;2.00;;;;;;;25.86;45.02;95247.88;6298019;27;109788;-66
2023/08/10 11:44:27;;;;;;;4.75;1.80;;;;;;;25.90;44.98;95249.59;6301113;27;109416;-64
2023/08/10 11:47:40;;;;;;;4.68;1.60;;;;;;;25.91;45.07;95245.03;6306970;27;110122;-64
2023/08/10 11:51:05;;;;;;;2.28;1.90;;;;;;;25.76;44.50;95249.03;6302864;27;111289;-71
2023/08/10 11:54:09;;;;;;;4.28;1.70;;;;;;;25.75;44.68;95244.78;6321498;27;109006;-78
2023/08/10 11:57:14;;;;;;;2.88;1.60;;;;;;;25.86;44.34;95235.25;6291226;27;109060;-77
2023/08/10 12:00:26;;;;;;;4.40;1.80;;;;;;;25.85;44.33;95244.41;6302424;27;109966;-75
2023/08/10 12:03:29;;;;;;;4.93;1.90;;;;;;;25.82;44.19;95233.53;6316485;27;109469;-76
2023/08/10 12:06:40;;;;;;;6.50;1.90;;;;;;;25.89;44.42;95236.50;6307959;27;109552;-72
2023/08/10 12:09:47;;;;;;;4.20;1.50;;;;;;;25.17;42.01;95232.88;6324960;27;109695;-67
2023/08/10 12:12:59;;;;;;;5.97;1.70;;;;;;;24.55;43.71;95227.19;6304543;27;109349;-64
2023/08/10 12:16:03;;;;;;;3.85;1.90;;;;;;;24.92;43.94;95221.16;6318849;27;109142;-64
2023/08/10 12:19:06;;;;;;;4.67;1.90;;;;;;;24.94;42.58;95226.97;6300394;27;109200;-65
2023/08/10 12:22:10;;;;;;;1.83;1.30;;;;;;;24.79;43.47;95217.56;6300189;27;109333;-73
2023/08/10 12:25:13;;;;;;;3.53;1.30;;;;;;;25.00;43.08;95212.28;6300417;27;109338;-72
2023/08/10 12:28:20;;;;;;;3.63;1.23;;;;;;;25.11;42.54;95217.31;6312806;27;109707;-71
2023/08/10 12:31:25;;;;;;;4.13;1.50;;;;;;;25.23;42.81;95226.25;6290742;27;108960;-73
2023/08/10 12:34:28;;;;;;;2.90;1.40;;;;;;;25.24;43.06;95219.78;6308820;27;110008;-74
2023/08/10 12:37:31;;;;;;;5.03;1.30;;;;;;;25.26;42.62;95224.81;6306533;27;109250;-72
2023/08/10 12:40:34;;;;;;;1.90;1.20;;;;;;;25.28;43.25;95222.59;6311292;27;109017;-67
2023/08/10 12:43:39;;;;;;;2.60;1.30;;;;;;;25.34;42.44;95230.13;6300700;27;108802;-74
2023/08/10 12:46:42;;;;;;;2.47;1.87;;;;;;;25.25;42.37;95225.94;6294902;27;108868;-74
2023/08/10 12:49:45;;;;;;;1.80;1.50;;;;;;;25.16;41.77;95223.28;6294494;27;109523;-72
2023/08/10 12:52:49;;;;;;;1.80;1.50;;;;;;;25.09;41.47;95220.31;6304210;27;109175;-66
2023/08/10 12:55:53;;;;;;;9.95;2.78;;;;;;;24.82;41.20;95207.31;6286435;27;109508;-66
2023/08/10 12:58:58;;;;;;;5.18;1.40;;;;;;;24.96;41.67;95211.38;6312808;27;109425;-67
2023/08/10 13:02:01;;;;;;;2.55;1.10;;;;;;;25.15;41.47;95211.00;6286467;27;109858;-66
2023/08/10 13:05:05;;;;;;;2.10;1.37;;;;;;;25.30;41.46;95207.00;6293152;27;110446;-67
2023/08/10 13:08:09;;;;;;;1.80;1.10;;;;;;;25.37;41.54;95204.63;6312600;27;109081;-66
2023/08/10 13:11:14;;;;;;;1.60;1.30;;;;;;;25.22;41.30;95211.28;6306691;27;110143;-65
2023/08/10 13:14:18;;;;;;;2.20;1.20;;;;;;;25.32;41.50;95210.13;6288535;27;109555;-65
2023/08/10 13:17:22;;;;;;;1.90;1.20;;;;;;;25.39;41.30;95213.13;6279501;27;110200;-66
2023/08/10 13:20:26;;;;;;;1.90;1.60;;;;;;;25.32;41.69;95213.59;6298150;27;108996;-66
2023/08/10 13:23:29;;;;;;;1.90;1.30;;;;;;;25.26;41.66;95216.78;6305867;27;109375;-65
2023/08/10 13:26:32;;;;;;;3.13;1.60;;;;;;;25.03;42.00;95209.00;6282121;27;110040;-65
2023/08/10 13:29:36;;;;;;;2.30;1.50;;;;;;;24.90;42.03;95212.66;6284200;27;109146;-66
2023/08/10 13:32:40;;;;;;;3.38;1.60;;;;;;;24.96;42.02;95202.56;6292218;27;109090;-65
2023/08/10 13:35:43;;;;;;;2.58;1.40;;;;;;;24.95;41.63;95212.47;6298182;27;111742;-64
2023/08/10 13:38:46;;;;;;;4.85;1.50;;;;;;;24.75;41.48;95205.91;6289705;27;111125;-65
2023/08/10 13:41:49;;;;;;;2.45;1.20;;;;;;;24.70;41.05;95197.28;6302076;27;108790;-65
2023/08/10 13:44:53;;;;;;;1.48;1.20;;;;;;;24.74;41.52;95198.22;6303099;27;108918;-65
2023/08/10 13:47:56;;;;;;;3.90;1.80;;;;;;;25.03;41.60;95200.97;6297256;27;109205;-66
2023/08/10 13:51:00;;;;;;;3.80;1.80;;;;;;;25.36;41.05;95200.38;6295258;27;109166;-67
2023/08/10 13:54:04;;;;;;;4.20;3.90;;;;;;;25.37;40.98;95202.75;6298570;27;109981;-66
2023/08/10 13:57:11;;;;;;;3.10;2.70;;;;;;;25.50;41.44;95198.25;6307513;27;109241;-67
2023/08/10 14:00:16;;;;;;;2.50;2.27;;;;;;;25.60;40.78;95208.59;6299875;27;109450;-65
2023/08/10 14:03:19;;;;;;;2.20;2.00;;;;;;;25.61;41.02;95204.81;6295034;27;109052;-67
2023/08/10 14:06:22;;;;;;;4.40;2.50;;;;;;;25.52;41.51;95206.75;6307099;27;109009;-64
2023/08/10 14:09:25;;;;;;;3.80;2.57;;;;;;;25.62;41.52;95211.75;6305210;27;109119;-66
2023/08/10 14:12:28;;;;;;;9.23;3.30;;;;;;;25.55;41.80;95216.84;6288849;27;109052;-68
2023/08/10 14:15:33;;;;;;;7.20;3.00;;;;;;;25.52;42.51;95222.81;6301450;27;108929;-71
2023/08/10 14:18:36;;;;;;;8.15;2.70;;;;;;;25.56;42.33;95220.31;6308839;27;109001;-71